Time;durP1;ratioP1;P1;durP2;ratioP2;P2;SDS_P1;SDS_P2;PMS_P1;PMS_P2;Temp;Humidity;BMP_temperature;BMP_pressure;BME280_temperature;BME280_humidity;BME280_pressure;Samples;Min_cycle;Max_cycle;Signal;HPM_P1;HPM_P2
2022/10/09 00:01:54;;;;;;;120.30;98.75;;;12.40;99.90;;;;;;5036919;28;20089;-71
2022/10/09 00:04:22;;;;;;;132.75;101.15;;;12.50;99.90;;;;;;5039726;28;20111;-71
2022/10/09 00:06:50;;;;;;;127.55;97.45;;;12.50;99.90;;;;;;5050381;28;20041;-71
2022/10/09 00:09:18;;;;;;;124.38;98.07;;;12.50;99.90;;;;;;5036733;28;20063;-71
2022/10/09 00:11:45;;;;;;;124.70;97.05;;;12.40;99.90;;;;;;5049942;28;20080;-71
2022/10/09 00:14:13;;;;;;;117.90;94.78;;;12.40;99.90;;;;;;5056198;28;20107;-72
2022/10/09 00:16:40;;;;;;;118.05;92.40;;;12.40;99.90;;;;;;5054923;28;20045;-72
2022/10/09 00:19:07;;;;;;;112.97;91.10;;;12.40;99.90;;;;;;5055529;28;20080;-72
2022/10/09 00:21:35;;;;;;;100.53;84.28;;;12.40;99.90;;;;;;5052255;28;20045;-72
2022/10/09 00:24:05;;;;;;;100.97;83.50;;;12.40;99.90;;;;;;5035021;28;20034;-72
2022/10/09 00:26:33;;;;;;;105.93;85.68;;;12.30;99.90;;;;;;5036128;28;20099;-72
2022/10/09 00:29:00;;;;;;;119.50;95.53;;;12.40;99.90;;;;;;5036406;28;20049;-72
2022/10/09 00:31:28;;;;;;;127.13;96.78;;;12.30;99.90;;;;;;5039140;28;20049;-73
2022/10/09 00:33:55;;;;;;;142.77;104.13;;;12.30;99.90;;;;;;5055208;28;20029;-72
2022/10/09 00:36:25;;;;;;;175.77;107.93;;;12.40;99.90;;;;;;5055782;28;20049;-72
2022/10/09 00:38:54;;;;;;;161.15;106.80;;;12.40;99.90;;;;;;5057458;28;20087;-72
2022/10/09 00:41:25;;;;;;;150.70;107.43;;;12.40;99.90;;;;;;5057330;28;20049;-72
2022/10/09 00:43:55;;;;;;;132.13;99.57;;;12.40;99.90;;;;;;5055542;28;20036;-72
2022/10/09 00:46:35;;;;;;;120.03;95.72;;;12.30;99.90;;;;;;5055815;28;20094;-72
2022/10/09 00:49:09;;;;;;;111.45;92.88;;;12.30;99.90;;;;;;5054724;28;20090;-72
2022/10/09 00:51:37;;;;;;;110.85;91.38;;;12.30;99.90;;;;;;5053023;28;20511;-72
2022/10/09 00:54:08;;;;;;;107.35;88.25;;;12.30;99.90;;;;;;5054050;28;20522;-72
2022/10/09 00:56:37;;;;;;;115.60;94.30;;;12.30;99.90;;;;;;5053182;28;20056;-72
2022/10/09 00:59:05;;;;;;;108.90;93.85;;;12.30;99.90;;;;;;5039530;28;20045;-72
2022/10/09 01:01:32;;;;;;;108.30;90.35;;;12.30;99.90;;;;;;5035459;28;20124;-72
2022/10/09 01:04:00;;;;;;;110.25;93.10;;;12.20;99.90;;;;;;5035357;28;20037;-72
2022/10/09 01:06:40;;;;;;;127.80;98.40;;;12.20;99.90;;;;;;5047052;28;20036;-72
2022/10/09 01:09:13;;;;;;;117.97;97.10;;;12.20;99.90;;;;;;5038952;28;20049;-72
2022/10/09 01:11:52;;;;;;;124.30;98.25;;;12.20;99.90;;;;;;5054669;28;20512;-72
2022/10/09 01:14:26;;;;;;;132.23;102.78;;;12.30;99.90;;;;;;5054775;28;20045;-72
2022/10/09 01:17:01;;;;;;;131.13;102.55;;;12.30;99.90;;;;;;5054865;28;20147;-72
2022/10/09 01:19:44;;;;;;;143.77;106.97;;;12.30;99.90;;;;;;5055263;28;20166;-71
2022/10/09 01:22:29;;;;;;;127.13;99.47;;;12.40;99.90;;;;;;5054173;28;20447;-71
2022/10/09 01:25:05;;;;;;;136.52;102.72;;;12.40;99.90;;;;;;5054997;28;20041;-73
2022/10/09 01:27:34;;;;;;;;;;;12.40;99.90;;;;;;5055102;28;20455;-72
2022/10/09 01:30:04;;;;;;;118.80;95.50;;;12.40;99.90;;;;;;5054863;28;19928;-72
2022/10/09 01:32:35;;;;;;;104.15;88.03;;;12.40;99.90;;;;;;5053990;28;20044;-72
2022/10/09 01:35:04;;;;;;;113.07;93.10;;;12.40;99.90;;;;;;5054542;28;20045;-71
2022/10/09 01:37:34;;;;;;;100.43;85.97;;;12.40;99.90;;;;;;5054933;28;20354;-72
2022/10/09 01:40:03;;;;;;;106.55;87.03;;;12.50;99.90;;;;;;5053271;28;20048;-72
2022/10/09 01:42:31;;;;;;;105.97;85.90;;;12.50;99.90;;;;;;5054653;28;20076;-72
2022/10/09 01:45:00;;;;;;;113.32;88.63;;;12.50;99.90;;;;;;5054853;28;20044;-72
2022/10/09 01:47:28;;;;;;;123.60;92.13;;;12.40;99.90;;;;;;5053509;28;20127;-72
2022/10/09 01:50:01;;;;;;;106.68;87.88;;;12.50;99.90;;;;;;5053782;28;20041;-72
2022/10/09 01:52:38;;;;;;;99.40;85.30;;;12.50;99.90;;;;;;5054387;28;20116;-71
2022/10/09 01:55:27;;;;;;;100.90;85.07;;;12.50;99.90;;;;;;5053578;28;20459;-71
2022/10/09 01:58:00;;;;;;;101.70;84.70;;;12.50;99.90;;;;;;5047246;28;20053;-72
2022/10/09 02:00:37;;;;;;;99.07;85.05;;;12.50;99.90;;;;;;5050871;28;20412;-72
2022/10/09 02:03:09;;;;;;;96.60;82.93;;;12.60;99.90;;;;;;5054126;28;20076;-72
2022/10/09 02:05:38;;;;;;;90.43;80.00;;;12.60;99.90;;;;;;5054052;28;20041;-72
2022/10/09 02:08:06;;;;;;;90.70;78.97;;;12.60;99.90;;;;;;5054667;28;20041;-72
2022/10/09 02:10:35;;;;;;;90.43;76.88;;;12.60;99.90;;;;;;5052587;28;20094;-72
2022/10/09 02:13:03;;;;;;;89.13;76.85;;;12.70;99.90;;;;;;5052473;28;20049;-72
2022/10/09 02:15:38;;;;;;;86.60;73.00;;;12.70;99.90;;;;;;5053064;28;20037;-72
2022/10/09 02:18:11;;;;;;;84.03;72.45;;;12.70;99.90;;;;;;5054326;28;20049;-72
2022/10/09 02:20:44;;;;;;;80.70;71.25;;;12.70;99.90;;;;;;5054501;28;20411;-72
2022/10/09 02:23:14;;;;;;;80.72;70.32;;;12.80;99.90;;;;;;5053778;28;20590;-72
2022/10/09 02:25:41;;;;;;;79.18;67.15;;;12.70;99.90;;;;;;5053658;28;20041;-72
2022/10/09 02:28:10;;;;;;;73.20;62.78;;;12.80;99.90;;;;;;5053996;28;20478;-71
2022/10/09 02:30:47;;;;;;;69.85;62.33;;;12.80;99.90;;;;;;5053692;28;20048;-72
2022/10/09 02:33:14;;;;;;;71.88;63.95;;;12.80;99.90;;;;;;5052263;28;20098;-71
2022/10/09 02:35:42;;;;;;;73.72;63.58;;;12.80;99.90;;;;;;5033827;28;20042;-71
2022/10/09 02:38:10;;;;;;;74.18;62.83;;;12.80;99.90;;;;;;5032737;28;20045;-72
2022/10/09 02:40:37;;;;;;;75.35;67.13;;;13.00;99.90;;;;;;5033904;28;20120;-71
2022/10/09 02:43:04;;;;;;;74.18;66.25;;;12.90;99.90;;;;;;5035813;28;20059;-71
2022/10/09 02:45:32;;;;;;;82.82;69.43;;;12.90;99.90;;;;;;5053661;28;20562;-72
2022/10/09 02:48:00;;;;;;;85.93;73.13;;;12.90;99.90;;;;;;5053994;28;20049;-71
2022/10/09 02:50:28;;;;;;;76.60;68.30;;;12.80;99.90;;;;;;5051894;28;20045;-72
2022/10/09 02:52:55;;;;;;;77.78;69.22;;;12.80;99.90;;;;;;5053029;28;20050;-72
2022/10/09 02:55:22;;;;;;;82.05;73.38;;;12.70;99.90;;;;;;5052744;28;20059;-72
2022/10/09 02:57:49;;;;;;;82.38;74.00;;;12.70;99.90;;;;;;5052324;28;20542;-72
2022/10/09 03:00:17;;;;;;;79.22;70.13;;;12.80;99.90;;;;;;5052071;28;20140;-71
2022/10/09 03:02:44;;;;;;;81.35;72.75;;;12.80;99.90;;;;;;5053164;28;20037;-72
2022/10/09 03:05:13;;;;;;;84.60;75.43;;;12.90;99.90;;;;;;5052877;28;20037;-72
2022/10/09 03:07:40;;;;;;;92.90;79.03;;;12.90;99.90;;;;;;5053665;28;20052;-72
2022/10/09 03:10:08;;;;;;;90.53;80.00;;;13.00;99.90;;;;;;5052862;28;20054;-72
2022/10/09 03:12:35;;;;;;;92.70;79.00;;;13.00;99.90;;;;;;5052020;28;20144;-72
2022/10/09 03:15:03;;;;;;;100.18;82.38;;;13.00;99.90;;;;;;5053523;28;20045;-71
2022/10/09 03:17:30;;;;;;;99.82;84.13;;;13.10;99.90;;;;;;5053294;28;20048;-71
2022/10/09 03:19:57;;;;;;;97.82;83.75;;;13.10;99.90;;;;;;5053231;28;20045;-71
2022/10/09 03:22:26;;;;;;;92.97;80.32;;;13.10;99.90;;;;;;5052583;28;20523;-71
2022/10/09 03:24:53;;;;;;;84.03;74.00;;;13.10;99.90;;;;;;5053346;28;20485;-72
2022/10/09 03:27:21;;;;;;;80.43;69.47;;;13.20;99.90;;;;;;5053617;28;20052;-72
2022/10/09 03:29:48;;;;;;;83.05;72.18;;;13.20;99.90;;;;;;5052738;28;20763;-72
2022/10/09 03:32:15;;;;;;;78.95;70.47;;;13.20;99.90;;;;;;5053192;28;20037;-72
2022/10/09 03:34:42;;;;;;;83.78;69.90;;;13.20;99.90;;;;;;5040938;28;20045;-71
2022/10/09 03:37:10;;;;;;;82.07;72.85;;;13.20;99.90;;;;;;5051098;28;20048;-72
2022/10/09 03:39:38;;;;;;;78.32;69.88;;;13.30;99.90;;;;;;5053285;28;20499;-72
2022/10/09 03:42:06;;;;;;;79.40;70.82;;;13.30;99.90;;;;;;5051462;28;20480;-72
2022/10/09 03:44:33;;;;;;;80.78;71.80;;;13.30;99.90;;;;;;5052541;28;20049;-72
2022/10/09 03:47:00;;;;;;;89.10;73.78;;;13.30;99.90;;;;;;5052775;28;20049;-72
2022/10/09 03:49:28;;;;;;;84.20;73.10;;;13.40;99.90;;;;;;5052493;28;20102;-71
2022/10/09 03:51:55;;;;;;;77.20;68.95;;;13.40;99.90;;;;;;5053090;28;20053;-72
2022/10/09 03:54:22;;;;;;;76.55;68.32;;;13.40;99.90;;;;;;5052366;28;20049;-72
2022/10/09 03:56:51;;;;;;;76.55;68.22;;;13.50;99.90;;;;;;5052082;28;20057;-72
2022/10/09 03:59:18;;;;;;;76.93;67.90;;;13.40;99.90;;;;;;5052513;28;20436;-72
2022/10/09 04:01:46;;;;;;;75.25;67.18;;;13.40;99.90;;;;;;5051583;28;20053;-72
2022/10/09 04:04:13;;;;;;;77.63;69.40;;;13.40;99.90;;;;;;5053062;28;20366;-72
2022/10/09 04:06:40;;;;;;;76.50;68.30;;;13.50;99.90;;;;;;5052896;28;20037;-72
2022/10/09 04:09:08;;;;;;;75.80;67.80;;;13.50;99.90;;;;;;5051844;28;20435;-72
2022/10/09 04:11:35;;;;;;;75.32;67.35;;;13.50;99.90;;;;;;5053393;28;20438;-71
2022/10/09 04:14:04;;;;;;;76.47;68.13;;;13.50;99.90;;;;;;5055076;28;20040;-71
2022/10/09 04:16:31;;;;;;;76.97;68.70;;;13.50;99.90;;;;;;5055307;28;20079;-72
2022/10/09 04:18:59;;;;;;;77.72;69.43;;;13.50;99.90;;;;;;5056149;28;20045;-72
2022/10/09 04:21:26;;;;;;;75.88;67.82;;;13.50;99.90;;;;;;5056149;28;20048;-72
2022/10/09 04:23:53;;;;;;;77.28;68.95;;;13.50;99.90;;;;;;5040810;28;20437;-72
2022/10/09 04:26:21;;;;;;;75.35;67.05;;;13.50;99.90;;;;;;5035814;28;20038;-72
2022/10/09 04:28:48;;;;;;;78.00;68.43;;;13.50;99.90;;;;;;5049115;28;20059;-72
2022/10/09 04:31:17;;;;;;;77.95;69.30;;;13.50;99.90;;;;;;5055606;28;20045;-71
2022/10/09 04:33:44;;;;;;;80.15;71.20;;;13.50;99.90;;;;;;5053967;28;20044;-72
2022/10/09 04:36:12;;;;;;;78.43;69.82;;;13.50;99.90;;;;;;5053759;28;20116;-72
2022/10/09 04:38:39;;;;;;;78.45;69.95;;;13.50;99.90;;;;;;5055361;28;20048;-72
2022/10/09 04:41:07;;;;;;;79.22;70.80;;;13.50;99.90;;;;;;5054390;28;20053;-71
2022/10/09 04:43:35;;;;;;;76.57;68.32;;;13.50;99.90;;;;;;5054034;28;20467;-72
2022/10/09 04:46:05;;;;;;;79.25;70.95;;;13.60;99.90;;;;;;5054237;28;20033;-72
2022/10/09 04:48:37;;;;;;;78.00;69.53;;;13.50;99.90;;;;;;5054884;28;20139;-71
2022/10/09 04:51:06;;;;;;;78.80;67.35;;;13.60;99.90;;;;;;5054476;28;20040;-72
2022/10/09 04:53:33;;;;;;;79.10;69.53;;;13.60;99.90;;;;;;5054990;28;20087;-72
2022/10/09 04:56:03;;;;;;;76.25;66.35;;;13.70;99.90;;;;;;5039023;28;20037;-72
2022/10/09 04:58:30;;;;;;;79.82;69.45;;;13.70;99.90;;;;;;5034171;28;20073;-72
2022/10/09 05:00:58;;;;;;;77.53;69.15;;;13.70;99.90;;;;;;5035572;28;20073;-71
2022/10/09 05:03:25;;;;;;;77.07;68.95;;;13.70;99.90;;;;;;5051872;28;20045;-72
2022/10/09 05:05:54;;;;;;;75.90;66.60;;;13.70;99.90;;;;;;5035528;28;20065;-71
2022/10/09 05:08:21;;;;;;;74.07;66.00;;;13.80;99.90;;;;;;5035559;28;20125;-71
2022/10/09 05:10:48;;;;;;;74.72;64.00;;;13.90;99.90;;;;;;5042549;28;20044;-71
2022/10/09 05:13:16;;;;;;;76.35;62.67;;;13.90;99.90;;;;;;5053538;28;20573;-72
2022/10/09 05:15:43;;;;;;;67.10;59.95;;;14.00;99.90;;;;;;5054857;28;20111;-71
2022/10/09 05:18:11;;;;;;;68.75;59.28;;;14.10;99.90;;;;;;5054924;28;20045;-72
2022/10/09 05:20:41;;;;;;;69.53;61.60;;;14.10;99.90;;;;;;5053911;28;20049;-72
2022/10/09 05:23:09;;;;;;;70.00;62.38;;;14.20;99.90;;;;;;5054437;28;20080;-71
2022/10/09 05:25:37;;;;;;;76.15;64.40;;;14.20;99.90;;;;;;5054741;28;20511;-72
2022/10/09 05:28:05;;;;;;;70.18;62.63;;;14.20;99.90;;;;;;5046499;28;20088;-72
2022/10/09 05:30:32;;;;;;;76.47;66.03;;;14.20;99.90;;;;;;5045972;28;20497;-71
2022/10/09 05:32:59;;;;;;;78.90;67.35;;;14.20;99.90;;;;;;5053848;28;20072;-71
2022/10/09 05:35:27;;;;;;;82.05;69.50;;;14.20;99.90;;;;;;5041658;28;20107;-72
2022/10/09 05:37:54;;;;;;;78.95;68.20;;;14.20;99.90;;;;;;5045610;28;20444;-72
2022/10/09 05:40:23;;;;;;;81.68;67.60;;;14.20;99.90;;;;;;5053141;28;20373;-73
2022/10/09 05:42:50;;;;;;;85.32;68.80;;;14.20;99.90;;;;;;5054577;28;20045;-72
2022/10/09 05:45:17;;;;;;;85.38;71.75;;;14.20;99.90;;;;;;5054670;28;20044;-72
2022/10/09 05:47:45;;;;;;;85.10;70.93;;;14.20;99.90;;;;;;5053626;28;20087;-73
2022/10/09 05:50:12;;;;;;;85.55;69.95;;;14.30;99.90;;;;;;5036778;28;20124;-73
2022/10/09 05:52:39;;;;;;;89.45;69.82;;;14.30;99.90;;;;;;5034091;28;20045;-73
2022/10/09 05:55:07;;;;;;;82.90;67.40;;;14.30;99.90;;;;;;5040542;28;20115;-73
2022/10/09 05:57:36;;;;;;;90.47;71.20;;;14.30;99.90;;;;;;5052183;28;20052;-73
2022/10/09 06:00:05;;;;;;;100.07;76.35;;;14.30;99.90;;;;;;5053989;28;20546;-74
2022/10/09 06:02:39;;;;;;;109.22;80.22;;;14.40;99.90;;;;;;5053498;28;20052;-73
2022/10/09 06:05:07;;;;;;;115.82;81.53;;;14.30;99.90;;;;;;5053496;28;20167;-73
2022/10/09 06:07:34;;;;;;;125.38;83.38;;;14.40;99.90;;;;;;5053772;28;20045;-73
2022/10/09 06:10:02;;;;;;;114.32;82.45;;;14.50;99.90;;;;;;5052953;28;20041;-73
2022/10/09 06:12:29;;;;;;;118.40;83.65;;;14.50;99.90;;;;;;5052501;28;20114;-72
2022/10/09 06:14:58;;;;;;;116.68;84.00;;;14.60;99.90;;;;;;5053196;28;20041;-73
2022/10/09 06:17:25;;;;;;;130.15;85.20;;;14.70;99.90;;;;;;5053163;28;20493;-72
2022/10/09 06:19:52;;;;;;;137.77;87.18;;;14.80;99.90;;;;;;5052968;28;20037;-73
2022/10/09 06:22:20;;;;;;;134.73;86.40;;;14.90;99.90;;;;;;5053677;28;20416;-73
2022/10/09 06:24:47;;;;;;;145.65;89.43;;;14.90;99.90;;;;;;5053144;28;20323;-73
2022/10/09 06:27:14;;;;;;;136.63;87.00;;;15.00;99.90;;;;;;5053523;28;20049;-73
2022/10/09 06:29:42;;;;;;;148.18;87.60;;;15.10;99.90;;;;;;5052334;28;20386;-73
2022/10/09 06:32:10;;;;;;;159.13;91.07;;;15.10;99.90;;;;;;5052707;28;20041;-73
2022/10/09 06:34:38;;;;;;;141.70;89.63;;;15.10;99.90;;;;;;5047513;28;20415;-73
2022/10/09 06:37:05;;;;;;;141.30;89.50;;;15.20;99.90;;;;;;5050646;28;20052;-72
2022/10/09 06:39:32;;;;;;;135.13;90.80;;;15.30;99.90;;;;;;5052361;28;20403;-73
2022/10/09 06:42:00;;;;;;;124.75;87.28;;;15.40;99.90;;;;;;5052325;28;20049;-73
2022/10/09 06:44:42;;;;;;;131.60;88.45;;;15.50;99.90;;;;;;5049997;28;20045;-73
2022/10/09 06:47:10;;;;;;;132.98;89.43;;;15.40;99.90;;;;;;5053069;28;20043;-73
2022/10/09 06:49:37;;;;;;;135.88;94.18;;;15.40;99.90;;;;;;5053511;28;20037;-72
2022/10/09 06:52:05;;;;;;;131.95;92.95;;;15.40;99.90;;;;;;5052863;28;20507;-73
2022/10/09 06:54:32;;;;;;;128.05;91.38;;;15.40;99.90;;;;;;5052910;28;20045;-73
2022/10/09 06:57:00;;;;;;;166.32;101.95;;;15.40;99.90;;;;;;5044532;28;20409;-73
2022/10/09 06:59:28;;;;;;;163.68;102.43;;;15.30;99.90;;;;;;5052522;28;20144;-74
2022/10/09 07:01:55;;;;;;;160.05;100.50;;;15.20;99.90;;;;;;5052211;28;20122;-74
2022/10/09 07:04:24;;;;;;;175.88;104.07;;;15.30;99.90;;;;;;5051991;28;20072;-72
2022/10/09 07:06:51;;;;;;;171.15;104.32;;;15.40;99.90;;;;;;5051934;28;20045;-73
2022/10/09 07:09:19;;;;;;;171.20;102.63;;;15.50;99.90;;;;;;5052210;28;20041;-73
2022/10/09 07:11:48;;;;;;;181.90;106.10;;;15.60;99.90;;;;;;5052543;28;20048;-73
2022/10/09 07:14:16;;;;;;;175.30;104.25;;;15.70;99.90;;;;;;5052168;28;20144;-73
2022/10/09 07:16:45;;;;;;;174.38;103.55;;;15.80;99.90;;;;;;5052411;28;20095;-73
2022/10/09 07:19:13;;;;;;;172.73;102.35;;;15.90;99.90;;;;;;5051727;28;20103;-73
2022/10/09 07:21:43;;;;;;;169.88;104.35;;;16.10;99.90;;;;;;5032499;28;20092;-73
2022/10/09 07:24:12;;;;;;;159.38;100.05;;;16.20;99.90;;;;;;5050292;28;20041;-73
2022/10/09 07:26:41;;;;;;;168.32;101.72;;;16.30;99.90;;;;;;5052631;28;20107;-74
2022/10/09 07:29:11;;;;;;;162.52;101.13;;;16.40;99.90;;;;;;5051972;28;20048;-73
2022/10/09 07:31:38;;;;;;;161.25;100.32;;;16.50;99.90;;;;;;5051854;28;20508;-73
2022/10/09 07:34:06;;;;;;;158.98;101.68;;;16.60;99.90;;;;;;5050995;28;20040;-72
2022/10/09 07:36:33;;;;;;;163.60;99.03;;;16.80;99.90;;;;;;5051328;28;20033;-73
2022/10/09 07:39:02;;;;;;;142.65;96.65;;;16.90;99.90;;;;;;5052573;28;20484;-74
2022/10/09 07:41:30;;;;;;;146.02;93.82;;;17.10;99.90;;;;;;5050352;28;20040;-73
2022/10/09 07:43:58;;;;;;;151.73;97.40;;;17.10;99.90;;;;;;5052098;28;20037;-73
2022/10/09 07:46:27;;;;;;;141.73;95.10;;;17.40;99.90;;;;;;5052748;28;20095;-73
2022/10/09 07:48:54;;;;;;;137.38;90.82;;;17.60;99.90;;;;;;5057109;28;20057;-72
2022/10/09 07:51:23;;;;;;;139.82;90.85;;;17.90;99.90;;;;;;5055728;28;20099;-72
2022/10/09 07:53:51;;;;;;;141.52;91.97;;;18.10;99.90;;;;;;5056261;28;20457;-72
2022/10/09 07:56:22;;;;;;;136.15;92.55;;;18.10;99.90;;;;;;5055727;28;20183;-73
2022/10/09 07:58:50;;;;;;;139.85;90.85;;;18.10;99.90;;;;;;5056246;28;20045;-73
2022/10/09 08:01:18;;;;;;;138.88;90.38;;;18.20;99.90;;;;;;5056723;28;20068;-73
2022/10/09 08:03:45;;;;;;;132.80;85.60;;;18.30;99.90;;;;;;5054433;28;20484;-74
2022/10/09 08:06:13;;;;;;;115.25;80.38;;;18.40;99.90;;;;;;5055621;28;20420;-74
2022/10/09 08:08:40;;;;;;;97.35;75.70;;;18.50;99.90;;;;;;5055564;28;20040;-73
2022/10/09 08:11:12;;;;;;;92.72;70.65;;;18.50;99.90;;;;;;5055430;28;20578;-74
2022/10/09 08:13:41;;;;;;;84.10;64.82;;;18.30;99.90;;;;;;5054906;28;20098;-73
2022/10/09 08:16:10;;;;;;;90.03;70.25;;;18.30;99.90;;;;;;5054533;28;20108;-73
2022/10/09 08:18:37;;;;;;;81.57;66.03;;;18.40;99.90;;;;;;5054097;28;20068;-74
2022/10/09 08:21:06;;;;;;;80.78;62.45;;;18.50;99.90;;;;;;5057011;28;20045;-75
2022/10/09 08:23:34;;;;;;;74.15;61.38;;;18.60;99.90;;;;;;5056188;28;20148;-75
2022/10/09 08:26:02;;;;;;;77.10;61.35;;;18.70;99.90;;;;;;5055612;28;20029;-75
2022/10/09 08:28:29;;;;;;;78.78;60.33;;;18.90;99.90;;;;;;5057826;28;20484;-75
2022/10/09 08:30:58;;;;;;;75.45;56.40;;;19.20;99.90;;;;;;5054330;28;20072;-75
2022/10/09 08:33:25;;;;;;;74.43;57.13;;;19.40;99.90;;;;;;5054444;28;20046;-75
2022/10/09 08:35:53;;;;;;;72.47;58.08;;;19.30;99.90;;;;;;5040306;28;20080;-74
2022/10/09 08:38:21;;;;;;;83.93;63.13;;;19.30;99.90;;;;;;5062648;28;20072;-74
2022/10/09 08:40:53;;;;;;;83.30;62.28;;;19.20;99.90;;;;;;5056928;28;20131;-75
2022/10/09 08:43:33;;;;;;;80.27;62.00;;;19.30;99.90;;;;;;5053941;28;20128;-74
2022/10/09 08:46:08;;;;;;;82.15;60.78;;;19.30;99.90;;;;;;5045608;28;20299;-73
2022/10/09 08:48:42;;;;;;;90.20;63.45;;;19.30;99.90;;;;;;5032618;28;20057;-74
2022/10/09 08:51:18;;;;;;;103.97;71.57;;;19.40;99.90;;;;;;5034066;28;20091;-74
2022/10/09 08:53:50;;;;;;;102.95;69.32;;;19.50;99.90;;;;;;5033272;28;20115;-74
2022/10/09 08:56:18;;;;;;;93.15;62.80;;;19.40;99.90;;;;;;5033649;28;20113;-74
2022/10/09 08:58:45;;;;;;;86.93;60.28;;;19.50;99.90;;;;;;5033718;28;20042;-73
2022/10/09 09:01:23;;;;;;;80.63;56.55;;;19.60;99.90;;;;;;5034527;28;20489;-73
2022/10/09 09:04:18;;;;;;;78.07;56.10;;;19.70;99.90;;;;;;5035099;28;20048;-75
2022/10/09 09:06:55;;;;;;;89.90;58.40;;;19.70;99.90;;;;;;5035441;28;20053;-75
2022/10/09 09:09:30;;;;;;;93.95;58.05;;;19.60;99.90;;;;;;5035478;28;20048;-75
2022/10/09 09:12:09;;;;;;;91.35;57.33;;;19.70;99.90;;;;;;5052104;28;20049;-74
2022/10/09 09:14:50;;;;;;;98.80;65.13;;;19.80;99.90;;;;;;5055012;28;20139;-74
2022/10/09 09:17:27;;;;;;;94.88;57.58;;;20.00;99.90;;;;;;5055718;28;20049;-73
2022/10/09 09:20:10;;;;;;;97.65;61.45;;;20.20;99.90;;;;;;5055845;28;20045;-73
2022/10/09 09:22:41;;;;;;;90.00;55.25;;;20.20;99.90;;;;;;5054764;28;20124;-74
2022/10/09 09:25:20;;;;;;;85.40;52.50;;;20.40;99.90;;;;;;5053028;28;20424;-74
2022/10/09 09:27:47;;;;;;;88.65;54.08;;;20.30;99.90;;;;;;5054546;28;20033;-74
2022/10/09 09:30:19;;;;;;;82.13;51.33;;;20.40;99.90;;;;;;5054075;28;20131;-75
2022/10/09 09:32:55;;;;;;;95.20;51.63;;;20.30;99.90;;;;;;5049311;28;20511;-74
2022/10/09 09:35:29;;;;;;;75.35;49.22;;;20.30;99.90;;;;;;5053817;28;20124;-76
2022/10/09 09:37:57;;;;;;;68.00;47.55;;;20.30;99.90;;;;;;5055120;28;20033;-75
2022/10/09 09:40:30;;;;;;;78.25;46.30;;;20.50;99.90;;;;;;5054412;28;20408;-75
2022/10/09 09:42:59;;;;;;;68.55;44.83;;;20.60;99.90;;;;;;5054196;28;20045;-74
2022/10/09 09:45:27;;;;;;;61.63;42.63;;;20.70;99.90;;;;;;5054359;28;20041;-74
2022/10/09 09:48:01;;;;;;;54.65;37.33;;;20.60;99.90;;;;;;5054935;28;20041;-75
2022/10/09 09:50:30;;;;;;;70.20;38.45;;;20.20;99.90;;;;;;5053045;28;20052;-75
2022/10/09 09:53:01;;;;;;;91.80;41.83;;;20.00;99.90;;;;;;5054403;28;20072;-73
2022/10/09 09:55:31;;;;;;;49.95;35.78;;;20.10;99.90;;;;;;5052994;28;20159;-74
2022/10/09 09:58:03;;;;;;;49.00;36.72;;;20.20;99.90;;;;;;5054992;28;20126;-74
2022/10/09 10:00:31;;;;;;;44.63;33.65;;;20.30;99.90;;;;;;5053817;28;20045;-73
2022/10/09 10:03:15;;;;;;;44.53;32.83;;;20.70;99.90;;;;;;5055679;28;20044;-74
2022/10/09 10:05:45;;;;;;;39.43;31.43;;;20.90;99.90;;;;;;5054754;28;20053;-74
2022/10/09 10:08:21;;;;;;;35.47;29.50;;;21.10;99.90;;;;;;5054940;28;20773;-74
2022/10/09 10:10:50;;;;;;;48.15;31.95;;;21.30;99.90;;;;;;5054009;28;20090;-75
2022/10/09 10:13:20;;;;;;;39.58;32.30;;;21.10;99.90;;;;;;5053937;28;20060;-75
2022/10/09 10:15:53;;;;;;;40.22;30.58;;;20.90;99.90;;;;;;5051400;28;20048;-75
2022/10/09 10:18:23;;;;;;;38.47;31.60;;;20.80;99.90;;;;;;5047664;28;20069;-75
2022/10/09 10:20:53;;;;;;;42.03;34.25;;;21.00;99.90;;;;;;5053356;28;20045;-73
2022/10/09 10:23:32;;;;;;;30.70;25.30;;;21.00;99.90;;;;;;5051959;28;20045;-74
2022/10/09 10:26:03;;;;;;;47.10;27.10;;;20.80;99.90;;;;;;5034697;28;20096;-75
2022/10/09 10:28:40;;;;;;;27.73;23.42;;;20.80;99.90;;;;;;5045601;28;20041;-75
2022/10/09 10:31:17;;;;;;;32.70;26.17;;;20.90;99.90;;;;;;5051781;28;20041;-74
2022/10/09 10:33:54;;;;;;;44.42;26.63;;;21.10;99.90;;;;;;5052365;28;20358;-74
2022/10/09 10:36:22;;;;;;;29.63;23.98;;;21.10;99.90;;;;;;5051485;28;20526;-75
2022/10/09 10:38:57;;;;;;;27.90;23.58;;;21.40;99.90;;;;;;5051675;28;20400;-74
2022/10/09 10:41:30;;;;;;;34.40;26.60;;;21.50;99.90;;;;;;5052179;28;20053;-75
2022/10/09 10:44:01;;;;;;;25.15;19.20;;;21.60;99.90;;;;;;5053180;28;20037;-75
2022/10/09 10:46:35;;;;;;;25.08;22.38;;;21.80;99.90;;;;;;5052831;28;20037;-76
2022/10/09 10:49:05;;;;;;;22.58;19.25;;;21.90;99.90;;;;;;5052789;28;20511;-75
2022/10/09 10:51:49;;;;;;;34.65;30.67;;;21.70;99.90;;;;;;5053975;28;20049;-74
2022/10/09 10:54:33;;;;;;;28.60;20.25;;;21.30;99.90;;;;;;5054269;28;20037;-74
2022/10/09 10:57:21;;;;;;;26.38;21.42;;;21.40;99.90;;;;;;5053323;28;20053;-74
2022/10/09 10:59:56;;;;;;;25.67;20.30;;;21.60;99.90;;;;;;5052848;28;20044;-72
2022/10/09 11:03:01;;;;;;;20.30;17.33;;;21.70;99.90;;;;;;5051577;28;20049;-73
2022/10/09 11:05:42;;;;;;;29.92;24.20;;;22.00;99.90;;;;;;5050513;28;20041;-74
2022/10/09 11:08:50;;;;;;;24.10;19.05;;;22.20;99.90;;;;;;5052098;28;20040;-74
2022/10/09 11:11:25;;;;;;;22.85;16.75;;;22.30;99.90;;;;;;5042354;28;20067;-75
2022/10/09 11:14:02;;;;;;;22.93;16.93;;;22.10;99.90;;;;;;5051143;28;20443;-75
2022/10/09 11:16:43;;;;;;;20.20;17.17;;;21.80;99.90;;;;;;5052194;28;20098;-74
2022/10/09 11:20:01;;;;;;;22.45;18.50;;;21.40;99.90;;;;;;5043047;28;20403;-75
2022/10/09 11:22:42;;;;;;;22.30;19.42;;;21.10;99.90;;;;;;5016653;28;20057;-74
2022/10/09 11:25:28;;;;;;;20.35;17.92;;;20.80;99.90;;;;;;5053430;28;20042;-74
2022/10/09 11:28:01;;;;;;;24.48;20.98;;;20.70;99.90;;;;;;5055967;28;20041;-75
2022/10/09 11:30:33;;;;;;;21.38;16.98;;;20.60;99.90;;;;;;5055002;28;20049;-74
2022/10/09 11:33:05;;;;;;;30.38;25.02;;;20.50;99.90;;;;;;5054934;28;20064;-74
2022/10/09 11:35:41;;;;;;;23.90;21.08;;;20.50;99.90;;;;;;5054014;28;20472;-75
2022/10/09 11:38:24;;;;;;;28.88;21.27;;;20.40;99.90;;;;;;5055320;28;20036;-75
2022/10/09 11:40:52;;;;;;;27.08;20.40;;;20.40;99.90;;;;;;5041864;28;20037;-75
2022/10/09 11:43:41;;;;;;;24.63;20.58;;;20.40;99.90;;;;;;5055197;28;20041;-74
2022/10/09 11:46:12;;;;;;;22.42;20.02;;;20.50;99.90;;;;;;5046214;28;20389;-74
2022/10/09 11:48:48;;;;;;;25.08;21.45;;;20.60;99.90;;;;;;5054055;28;20049;-72
2022/10/09 11:51:19;;;;;;;25.55;20.50;;;20.60;99.90;;;;;;5036661;28;20095;-72
2022/10/09 11:53:50;;;;;;;24.13;20.88;;;20.60;99.90;;;;;;5045867;28;20076;-73
2022/10/09 11:56:22;;;;;;;25.27;21.25;;;20.70;99.90;;;;;;5060779;28;20049;-71
2022/10/09 11:58:57;;;;;;;26.15;22.58;;;20.70;99.90;;;;;;5055488;28;20052;-72
2022/10/09 12:01:31;;;;;;;29.73;26.42;;;20.70;99.90;;;;;;5056700;28;20049;-72
2022/10/09 12:04:05;;;;;;;25.35;19.83;;;20.50;99.90;;;;;;5054821;28;20056;-72
2022/10/09 12:06:44;;;;;;;24.95;19.90;;;20.50;99.90;;;;;;5055968;28;20045;-72
2022/10/09 12:09:23;;;;;;;29.50;22.90;;;20.60;99.90;;;;;;5056117;28;20052;-71
2022/10/09 12:12:00;;;;;;;26.67;20.25;;;20.70;99.90;;;;;;5055895;28;20162;-72
2022/10/09 12:14:29;;;;;;;32.65;28.15;;;20.90;99.90;;;;;;5055583;28;20041;-71
2022/10/09 12:16:58;;;;;;;27.30;22.95;;;20.90;99.90;;;;;;5055853;28;20043;-71
2022/10/09 12:19:29;;;;;;;28.30;24.75;;;21.10;99.90;;;;;;5056106;28;20542;-71
2022/10/09 12:22:03;;;;;;;27.67;22.85;;;21.40;99.90;;;;;;5055818;28;20049;-71
2022/10/09 12:24:37;;;;;;;24.63;20.30;;;21.60;99.90;;;;;;5055580;28;20045;-72
2022/10/09 12:27:06;;;;;;;28.40;20.05;;;21.90;99.90;;;;;;5053401;28;20047;-72
2022/10/09 12:29:40;;;;;;;22.35;19.88;;;22.00;99.90;;;;;;5045009;28;20044;-71
2022/10/09 12:32:15;;;;;;;30.73;21.92;;;22.30;99.90;;;;;;5053183;28;20099;-72
2022/10/09 12:34:46;;;;;;;27.20;19.20;;;22.40;99.90;;;;;;5053839;28;20500;-72
2022/10/09 12:37:16;;;;;;;21.70;18.15;;;22.40;99.90;;;;;;5053438;28;20037;-71
2022/10/09 12:39:46;;;;;;;19.50;17.27;;;22.30;99.90;;;;;;5055364;28;20041;-71
2022/10/09 12:42:23;;;;;;;15.93;14.00;;;22.10;99.90;;;;;;5053827;28;20052;-72